Time;durP1;ratioP1;P1;durP2;ratioP2;P2;SDS_P1;SDS_P2;PMS_P1;PMS_P2;Temp;Humidity;BMP_temperature;BMP_pressure;BME280_temperature;BME280_humidity;BME280_pressure;Samples;Min_cycle;Max_cycle;Signal;HPM_P1;HPM_P2
2022/04/01 00:01:09;;;;;;;7.40;5.05;;;;;;;2.33;78.21;100173.13;5038508;28;20064;-91
2022/04/01 00:03:34;;;;;;;5.78;4.68;;;;;;;2.22;78.29;100169.84;5040264;28;20036;-90
2022/04/01 00:05:59;;;;;;;9.13;5.28;;;;;;;2.27;78.37;100188.88;5033215;28;20037;-89
2022/04/01 00:08:25;;;;;;;4.40;4.00;;;;;;;2.24;78.32;100178.53;5036497;28;20111;-88
2022/04/01 00:10:50;;;;;;;7.82;4.60;;;;;;;2.22;78.24;100191.56;5040687;28;20072;-90
2022/04/01 00:13:15;;;;;;;6.78;4.55;;;;;;;2.21;78.61;100187.25;5036578;28;20064;-90
2022/04/01 00:15:41;;;;;;;6.22;4.43;;;;;;;2.17;78.80;100180.34;5035899;28;20029;-90
2022/04/01 00:18:06;;;;;;;5.38;3.97;;;;;;;2.18;78.35;100178.59;5037837;28;20521;-90
2022/04/01 00:20:31;;;;;;;5.47;4.28;;;;;;;2.14;78.70;100193.44;5041228;28;20206;-90
2022/04/01 00:22:57;;;;;;;4.13;3.47;;;;;;;2.09;78.72;100191.78;5042431;28;20033;-90
2022/04/01 00:25:23;;;;;;;5.65;3.85;;;;;;;2.02;78.96;100194.50;5041004;28;20040;-90
2022/04/01 00:27:48;;;;;;;8.48;3.80;;;;;;;2.03;78.98;100206.66;5043415;28;20025;-89
2022/04/01 00:30:13;;;;;;;6.43;4.60;;;;;;;2.01;79.02;100195.41;5056880;28;20471;-90
2022/04/01 00:32:39;;;;;;;4.85;3.60;;;;;;;2.04;78.89;100192.72;5042841;28;20234;-90
2022/04/01 00:35:06;;;;;;;5.95;3.63;;;;;;;2.02;78.77;100197.09;5042147;28;20059;-90
2022/04/01 00:37:31;;;;;;;5.07;3.78;;;;;;;2.08;78.77;100203.13;5039919;28;20060;-89
2022/04/01 00:39:57;;;;;;;4.30;3.90;;;;;;;2.03;78.92;100204.03;5041962;28;20448;-90
2022/04/01 00:42:23;;;;;;;5.05;3.95;;;;;;;2.07;79.07;100204.00;5047912;28;20021;-89
2022/04/01 00:44:48;;;;;;;7.45;4.43;;;;;;;2.03;78.81;100195.38;5043856;28;20120;-90
2022/04/01 00:47:14;;;;;;;5.55;3.83;;;;;;;2.08;79.03;100205.72;5044165;28;20032;-88
2022/04/01 00:49:42;;;;;;;5.88;4.28;;;;;;;2.00;79.16;100211.03;5043477;28;20047;-89
2022/04/01 00:52:10;;;;;;;6.60;4.57;;;;;;;2.01;79.28;100211.03;5040454;28;20086;-89
2022/04/01 00:54:35;;;;;;;5.63;3.97;;;;;;;1.98;79.02;100198.03;5041195;28;20484;-88
2022/04/01 00:57:10;;;;;;;4.85;4.10;;;;;;;2.00;79.02;100214.50;5041984;28;20029;-89
2022/04/01 00:59:36;;;;;;;4.53;3.67;;;;;;;1.80;79.06;100190.50;5038398;28;20033;-89
2022/04/01 01:02:02;;;;;;;3.95;3.55;;;;;;;1.96;78.94;100217.22;5042951;28;20071;-89
2022/04/01 01:04:27;;;;;;;5.47;4.22;;;;;;;1.92;79.15;100216.38;5041243;28;20060;-88
2022/04/01 01:06:57;;;;;;;5.07;4.35;;;;;;;1.93;79.22;100225.06;5039156;28;20150;-90
2022/04/01 01:09:25;;;;;;;4.13;3.28;;;;;;;1.97;79.21;100219.78;5035404;28;20052;-90
2022/04/01 01:11:51;;;;;;;7.35;3.88;;;;;;;1.92;79.20;100208.56;5041999;28;20485;-89
2022/04/01 01:14:33;;;;;;;4.97;3.85;;;;;;;1.90;79.27;100225.97;5040824;28;20029;-90
2022/04/01 01:16:59;;;;;;;3.72;3.35;;;;;;;1.85;79.33;100226.91;5040734;28;20080;-89
2022/04/01 01:19:25;;;;;;;4.13;3.35;;;;;;;1.85;78.93;100224.31;5042305;28;20589;-88
2022/04/01 01:21:52;;;;;;;4.55;3.38;;;;;;;1.84;79.77;100222.59;5040810;28;20182;-90
2022/04/01 01:24:37;;;;;;;4.72;3.60;;;;;;;1.85;79.77;100216.50;5040503;28;20169;-90
2022/04/01 01:27:06;;;;;;;6.22;3.47;;;;;;;1.86;79.09;100224.28;5042531;28;20459;-90
2022/04/01 01:29:32;;;;;;;3.88;3.28;;;;;;;1.87;79.19;100220.81;5041680;28;20086;-90
2022/04/01 01:32:03;;;;;;;4.50;3.30;;;;;;;1.76;79.62;100218.34;5040869;28;20444;-90
2022/04/01 01:34:29;;;;;;;5.43;4.00;;;;;;;1.82;79.85;100220.03;5039489;28;20025;-90
2022/04/01 01:36:56;;;;;;;4.70;3.67;;;;;;;1.83;79.54;100218.28;5038949;28;20086;-90
2022/04/01 01:39:22;;;;;;;4.80;3.38;;;;;;;1.88;79.46;100232.09;5041076;28;20116;-92
2022/04/01 01:41:49;;;;;;;5.18;3.45;;;;;;;1.89;79.45;100226.00;5041342;28;20108;-91
2022/04/01 01:44:16;;;;;;;7.75;3.55;;;;;;;1.84;79.61;100226.06;5037956;28;20080;-89
2022/04/01 01:46:41;;;;;;;5.70;4.40;;;;;;;1.89;79.41;100233.81;5039269;28;20021;-89
2022/04/01 01:49:07;;;;;;;6.45;3.80;;;;;;;1.90;79.28;100225.09;5040836;28;20025;-91
2022/04/01 01:57:02;;;;;;;5.15;3.85;;;;;;;1.82;79.67;100233.06;5046858;28;20342;-91
2022/04/01 01:59:27;;;;;;;4.82;3.45;;;;;;;1.83;79.44;100242.59;5044289;28;20083;-91
2022/04/01 02:01:53;;;;;;;4.68;3.53;;;;;;;1.79;79.24;100236.53;5044850;28;20483;-89
2022/04/01 02:04:22;;;;;;;4.30;3.50;;;;;;;1.81;79.67;100243.47;5045119;28;20021;-90
2022/04/01 02:06:48;;;;;;;5.28;4.78;;;;;;;1.84;79.44;100243.44;5044318;28;20029;-90
2022/04/01 02:09:14;;;;;;;5.18;3.60;;;;;;;1.84;79.65;100243.44;5046658;28;20032;-90
2022/04/01 02:11:39;;;;;;;6.20;4.15;;;;;;;1.83;79.48;100242.59;5045487;28;20634;-91
2022/04/01 02:14:05;;;;;;;5.88;3.72;;;;;;;1.82;79.52;100238.25;5043529;28;20029;-91
2022/04/01 02:16:30;;;;;;;5.72;3.80;;;;;;;1.78;79.66;100234.84;5045267;28;20178;-90
2022/04/01 02:18:56;;;;;;;4.45;3.72;;;;;;;1.88;79.48;100256.41;5043532;28;20438;-91
2022/04/01 02:21:21;;;;;;;4.93;3.60;;;;;;;1.84;79.42;100252.13;5044097;28;20037;-91
2022/04/01 02:23:48;;;;;;;3.88;3.28;;;;;;;1.82;79.13;100250.41;5044443;28;20082;-90
2022/04/01 02:26:14;;;;;;;6.07;4.13;;;;;;;1.85;78.79;100258.19;5045488;28;20120;-89
2022/04/01 02:28:41;;;;;;;4.93;3.58;;;;;;;1.84;79.12;100257.34;5044900;28;20067;-90
2022/04/01 02:31:08;;;;;;;5.22;4.18;;;;;;;1.82;79.63;100261.72;5043829;28;20053;-91
2022/04/01 02:33:35;;;;;;;3.97;3.58;;;;;;;1.83;79.92;100247.78;5043893;28;20025;-91
2022/04/01 02:36:06;;;;;;;7.28;3.72;;;;;;;1.77;79.45;100247.84;5059709;28;20422;-91
2022/04/01 02:38:32;;;;;;;4.75;4.28;;;;;;;1.79;79.63;100256.53;5044802;28;20035;-91
2022/04/01 02:40:58;;;;;;;5.90;4.22;;;;;;;1.88;79.18;100264.22;5046659;28;20025;-92
2022/04/01 02:43:25;;;;;;;5.18;3.65;;;;;;;1.87;79.48;100272.09;5045068;28;20146;-89
2022/04/01 02:45:50;;;;;;;4.20;3.42;;;;;;;1.83;78.96;100262.56;5044067;28;20029;-90
2022/04/01 02:48:17;;;;;;;4.90;4.15;;;;;;;1.84;79.32;100275.56;5042007;28;20352;-91
2022/04/01 02:50:44;;;;;;;6.50;4.80;;;;;;;1.84;79.41;100272.13;5044123;28;20059;-91
2022/04/01 02:53:10;;;;;;;4.70;3.83;;;;;;;1.85;79.28;100281.66;5046654;28;20603;-89
2022/04/01 02:55:37;;;;;;;4.47;4.03;;;;;;;1.79;79.31;100277.38;5046891;28;20043;-91
2022/04/01 02:58:05;;;;;;;5.80;3.95;;;;;;;1.82;78.99;100287.78;5045015;28;20096;-91
2022/04/01 03:00:31;;;;;;;5.00;4.00;;;;;;;1.82;78.96;100282.56;5043048;28;20493;-92
2022/04/01 03:02:57;;;;;;;7.22;4.00;;;;;;;1.83;78.96;100292.09;5045843;28;20041;-91
2022/04/01 03:05:22;;;;;;;4.88;4.25;;;;;;;1.82;79.06;100293.00;5043344;28;20138;-92
2022/04/01 03:07:47;;;;;;;6.15;4.38;;;;;;;1.74;78.86;100284.41;5044680;28;20259;-90
2022/04/01 03:10:13;;;;;;;5.93;4.55;;;;;;;1.71;78.99;100292.25;5045042;28;20037;-91
2022/04/01 03:12:38;;;;;;;4.90;4.22;;;;;;;1.76;79.34;100298.25;5043595;28;20568;-91
2022/04/01 03:15:04;;;;;;;5.60;4.63;;;;;;;1.85;78.99;100303.34;5045149;28;20066;-92
2022/04/01 03:17:33;;;;;;;6.28;4.63;;;;;;;1.83;78.80;100312.94;5044566;28;20036;-91
2022/04/01 03:19:59;;;;;;;7.32;4.82;;;;;;;1.78;78.91;100299.97;5043015;28;20049;-93
2022/04/01 03:22:25;;;;;;;7.32;4.70;;;;;;;1.83;78.93;100314.69;5043934;28;20469;-91
2022/04/01 03:24:51;;;;;;;6.68;5.18;;;;;;;1.82;79.02;100311.22;5044162;28;20063;-90
2022/04/01 03:27:17;;;;;;;7.18;5.70;;;;;;;1.82;78.98;100312.94;5043806;28;20124;-92
2022/04/01 03:29:42;;;;;;;8.55;6.18;;;;;;;1.73;78.59;100322.63;5043808;28;20094;-92
2022/04/01 03:32:09;;;;;;;9.63;6.10;;;;;;;1.68;79.09;100314.00;5043015;28;20028;-91
2022/04/01 03:34:34;;;;;;;7.00;5.80;;;;;;;1.73;78.97;100324.38;5042973;28;20479;-91
2022/04/01 03:37:00;;;;;;;6.65;5.53;;;;;;;1.77;79.59;100326.94;5043782;28;20025;-91
2022/04/01 03:39:25;;;;;;;7.93;5.65;;;;;;;1.74;79.50;100320.88;5044993;28;20024;-91
2022/04/01 03:41:51;;;;;;;6.80;5.50;;;;;;;1.79;79.37;100329.50;5044388;28;20487;-92
2022/04/01 03:44:17;;;;;;;5.93;5.32;;;;;;;1.73;79.34;100330.44;5048283;28;20127;-90
2022/04/01 03:46:49;;;;;;;6.72;5.30;;;;;;;1.72;79.51;100327.84;5050889;28;20095;-91
2022/04/01 03:49:24;;;;;;;7.72;5.55;;;;;;;1.73;79.32;100337.41;5047775;28;20543;-90
2022/04/01 03:51:51;;;;;;;7.13;5.28;;;;;;;1.72;79.78;100344.34;5045573;28;20025;-91
2022/04/01 03:54:17;;;;;;;8.20;5.50;;;;;;;1.67;79.57;100334.84;5042687;28;20044;-93
2022/04/01 03:56:49;;;;;;;6.22;4.57;;;;;;;1.68;79.56;100347.00;5043136;28;20052;-90
2022/04/01 03:59:15;;;;;;;;;;;;;;;1.71;79.17;100344.38;5044456;28;20131;-91
2022/04/01 04:01:41;;;;;;;6.22;4.45;;;;;;;1.59;79.84;100345.38;5042404;28;20495;-91
2022/04/01 04:04:07;;;;;;;6.57;4.70;;;;;;;1.63;79.85;100360.09;5042839;28;20266;-89
2022/04/01 04:06:38;;;;;;;6.43;5.13;;;;;;;1.65;79.67;100367.91;5041979;28;20124;-91
2022/04/01 04:09:04;;;;;;;6.65;4.60;;;;;;;1.64;79.87;100371.38;5042107;28;20299;-91
2022/04/01 04:11:32;;;;;;;6.03;5.15;;;;;;;1.56;79.75;100360.19;5041490;28;20064;-89
2022/04/01 04:14:00;;;;;;;7.93;5.50;;;;;;;1.62;79.91;100366.19;5043648;28;20056;-90
2022/04/01 04:16:34;;;;;;;5.93;5.03;;;;;;;1.58;79.92;100372.28;5041828;28;20024;-89
2022/04/01 04:19:03;;;;;;;6.03;5.00;;;;;;;1.62;79.96;100375.75;5042150;28;20044;-90
2022/04/01 04:21:36;;;;;;;5.75;4.32;;;;;;;1.53;79.63;100372.34;5042716;28;20024;-91
2022/04/01 04:24:02;;;;;;;7.65;5.55;;;;;;;1.55;80.09;100380.16;5042097;28;20112;-92
2022/04/01 04:26:32;;;;;;;5.97;4.82;;;;;;;1.60;80.02;100382.72;5042402;28;20067;-92
2022/04/01 04:29:08;;;;;;;4.88;4.25;;;;;;;1.65;79.19;100399.16;5042485;28;20029;-90
2022/04/01 04:31:35;;;;;;;8.98;5.60;;;;;;;1.49;79.42;100383.72;5042770;28;20025;-92
2022/04/01 04:34:04;;;;;;;5.55;4.47;;;;;;;1.51;79.73;100392.34;5042496;28;20029;-90
2022/04/01 04:36:38;;;;;;;6.75;4.55;;;;;;;1.50;79.89;100392.38;5040514;28;20416;-90
2022/04/01 04:39:07;;;;;;;6.00;4.80;;;;;;;1.41;79.91;100395.94;5041613;28;20029;-91
2022/04/01 04:41:33;;;;;;;7.53;5.70;;;;;;;1.45;79.82;100413.25;5045155;28;20033;-89
2022/04/01 04:43:59;;;;;;;6.72;5.13;;;;;;;1.46;80.22;100412.38;5041661;28;20516;-91
2022/04/01 04:46:26;;;;;;;5.78;5.03;;;;;;;1.47;79.70;100421.91;5044125;28;20029;-91
2022/04/01 04:48:54;;;;;;;7.40;5.15;;;;;;;1.50;79.83;100421.91;5043096;28;20380;-90
2022/04/01 04:51:24;;;;;;;7.82;5.05;;;;;;;1.45;79.81;100418.47;5041550;28;20472;-91
2022/04/01 04:53:51;;;;;;;6.43;5.07;;;;;;;1.45;79.55;100425.44;5040956;28;20484;-89
2022/04/01 04:56:18;;;;;;;7.70;6.03;;;;;;;1.43;79.69;100420.22;5040465;28;20396;-91
2022/04/01 04:58:44;;;;;;;9.27;5.65;;;;;;;1.47;79.66;100421.06;5041767;28;20079;-90
2022/04/01 05:01:13;;;;;;;7.60;5.38;;;;;;;1.56;79.29;100438.34;5041291;28;20024;-91
2022/04/01 05:04:13;;;;;;;9.13;5.35;;;;;;;1.57;78.94;100451.34;5041260;28;20400;-91
2022/04/01 05:06:48;;;;;;;7.35;5.18;;;;;;;1.48;78.64;100454.03;5018063;28;20037;-90
2022/04/01 05:09:34;;;;;;;6.40;4.82;;;;;;;1.49;78.77;100447.94;5042473;28;20040;-89
2022/04/01 05:12:11;;;;;;;6.47;4.82;;;;;;;1.50;79.04;100460.09;5042062;28;20024;-90
2022/04/01 05:14:55;;;;;;;6.20;4.50;;;;;;;1.57;78.35;100474.78;5041031;28;20021;-91
2022/04/01 05:17:43;;;;;;;6.10;4.50;;;;;;;1.47;78.43;100466.19;5042884;28;20037;-91
2022/04/01 05:20:16;;;;;;;6.15;5.03;;;;;;;1.51;78.68;100473.09;5042562;28;20053;-91
2022/04/01 05:22:48;;;;;;;5.70;4.35;;;;;;;1.55;78.36;100478.31;5041042;28;20536;-90
2022/04/01 05:25:18;;;;;;;7.00;5.20;;;;;;;1.50;78.49;100481.81;5046022;28;20480;-91
2022/04/01 05:27:51;;;;;;;6.45;5.10;;;;;;;1.52;78.61;100468.75;5047342;28;20384;-89
2022/04/01 05:30:18;;;;;;;5.85;4.22;;;;;;;1.52;78.00;100482.66;5045199;28;20583;-92
2022/04/01 05:33:09;;;;;;;6.80;4.90;;;;;;;1.59;78.10;100486.06;5046757;28;20040;-92
2022/04/01 05:35:37;;;;;;;7.53;5.53;;;;;;;1.57;77.99;100495.63;5045816;28;20025;-92
2022/04/01 05:38:04;;;;;;;8.38;5.55;;;;;;;1.56;77.87;100493.03;5046960;28;20424;-92
2022/04/01 05:40:31;;;;;;;5.75;4.70;;;;;;;1.55;78.00;100493.94;5046413;28;20055;-90
2022/04/01 05:42:57;;;;;;;6.80;4.85;;;;;;;1.60;77.93;100511.25;5048159;28;20032;-90
2022/04/01 05:45:28;;;;;;;8.32;5.40;;;;;;;1.56;77.73;100509.53;5045809;28;20028;-93
2022/04/01 05:47:55;;;;;;;6.47;4.90;;;;;;;1.49;77.81;100506.13;5045796;28;20032;-91
2022/04/01 05:50:22;;;;;;;6.50;5.15;;;;;;;1.50;77.49;100517.41;5045719;28;20029;-91
2022/04/01 05:52:48;;;;;;;6.65;4.70;;;;;;;1.56;77.43;100530.38;5045210;28;20025;-91
2022/04/01 05:55:15;;;;;;;6.30;5.05;;;;;;;1.60;77.24;100534.69;5047553;28;20079;-91
2022/04/01 05:57:41;;;;;;;6.13;4.45;;;;;;;1.62;77.31;100539.88;5045069;28;20043;-90
2022/04/01 06:00:07;;;;;;;6.03;4.65;;;;;;;1.60;77.62;100541.66;5045270;28;20037;-89
2022/04/01 06:02:58;;;;;;;6.72;4.78;;;;;;;1.65;77.41;100540.72;5047190;28;20021;-91
2022/04/01 06:05:31;;;;;;;7.18;4.72;;;;;;;1.57;77.12;100545.13;5045858;28;20877;-90
2022/04/01 06:07:59;;;;;;;7.00;4.15;;;;;;;1.52;77.14;100534.75;5046587;28;20060;-92
2022/04/01 06:10:59;;;;;;;8.48;5.10;;;;;;;1.57;77.20;100557.28;5045673;28;20485;-92
2022/04/01 06:13:54;;;;;;;5.97;4.90;;;;;;;1.58;77.13;100566.84;5043656;28;20143;-90
2022/04/01 06:16:27;;;;;;;7.35;4.72;;;;;;;1.63;77.29;100573.75;5044591;28;20045;-91
2022/04/01 06:19:06;;;;;;;6.05;4.32;;;;;;;1.61;76.88;100572.88;5043239;28;20025;-91
2022/04/01 06:21:38;;;;;;;7.28;4.82;;;;;;;1.54;76.91;100573.81;5043913;28;20507;-89
2022/04/01 06:24:18;;;;;;;5.97;4.32;;;;;;;1.62;77.14;100581.56;5044088;28;20400;-90
2022/04/01 06:26:54;;;;;;;5.97;4.13;;;;;;;1.61;76.56;100590.25;5044208;28;20060;-90
2022/04/01 06:29:35;;;;;;;6.03;4.22;;;;;;;1.59;76.68;100592.03;5044571;28;20029;-91
2022/04/01 06:32:12;;;;;;;6.85;4.07;;;;;;;1.56;76.55;100586.84;5046195;28;20060;-89
2022/04/01 06:34:54;;;;;;;5.85;4.55;;;;;;;1.53;76.60;100588.56;5043534;28;20110;-91
2022/04/01 06:37:32;;;;;;;6.20;4.35;;;;;;;1.48;76.72;100592.94;5040344;28;20029;-88
2022/04/01 06:40:05;;;;;;;6.45;3.72;;;;;;;1.55;76.68;100604.22;5039059;28;20119;-91
2022/04/01 06:42:33;;;;;;;4.55;3.22;;;;;;;1.54;76.31;100607.69;5046652;28;20124;-89
2022/04/01 06:44:59;;;;;;;8.05;4.32;;;;;;;1.52;76.43;100607.69;5083511;28;20025;-90
2022/04/01 06:47:26;;;;;;;6.90;4.18;;;;;;;1.46;76.47;100606.88;5047355;28;20560;-89
2022/04/01 06:49:52;;;;;;;6.88;4.10;;;;;;;1.53;76.63;100625.03;5046271;28;20127;-88
2022/04/01 06:52:19;;;;;;;7.00;4.20;;;;;;;1.53;76.46;100632.00;5043351;28;20412;-90
2022/04/01 06:54:46;;;;;;;6.03;4.40;;;;;;;1.43;75.57;100622.50;5043272;28;20380;-91
2022/04/01 06:57:11;;;;;;;7.53;3.95;;;;;;;1.51;76.39;100633.75;5043566;28;20025;-89
2022/04/01 06:59:37;;;;;;;4.65;3.53;;;;;;;1.53;75.81;100622.44;5043186;28;20036;-90
2022/04/01 07:02:02;;;;;;;4.82;3.60;;;;;;;1.53;76.04;100632.00;5045644;28;20496;-90
2022/04/01 07:04:28;;;;;;;5.50;3.63;;;;;;;1.56;76.03;100636.34;5043029;28;20021;-89
2022/04/01 07:06:55;;;;;;;4.20;3.33;;;;;;;1.51;75.71;100631.16;5044441;28;20032;-89
2022/04/01 07:09:22;;;;;;;6.38;3.63;;;;;;;1.55;76.09;100647.63;5043459;28;20035;-91
2022/04/01 07:11:47;;;;;;;4.75;3.58;;;;;;;1.55;75.85;100640.69;5044293;28;20025;-89
2022/04/01 07:14:12;;;;;;;5.22;3.17;;;;;;;1.54;75.44;100657.19;5043157;28;20485;-91
2022/04/01 07:16:38;;;;;;;4.53;3.90;;;;;;;1.55;76.52;100647.63;5045177;28;20040;-89
2022/04/01 07:19:03;;;;;;;6.60;3.50;;;;;;;1.56;75.61;100649.34;5044012;28;20025;-90
2022/04/01 07:21:29;;;;;;;6.15;3.67;;;;;;;1.55;75.73;100663.28;5043994;28;20158;-89
2022/04/01 07:23:56;;;;;;;6.13;4.15;;;;;;;1.57;75.74;100669.31;5045151;28;20112;-96
2022/04/01 07:26:21;;;;;;;4.57;3.30;;;;;;;1.61;75.94;100676.25;5045054;28;20108;-92
2022/04/01 07:28:48;;;;;;;5.63;3.83;;;;;;;1.67;75.88;100671.84;5046610;28;20057;-91
2022/04/01 07:33:57;;;;;;;10.02;3.47;;;;;;;1.65;75.25;100676.22;5045885;28;20162;-93
2022/04/01 07:36:23;;;;;;;5.32;3.88;;;;;;;1.65;75.10;100670.16;5046096;28;20037;-92
2022/04/01 07:38:48;;;;;;;5.82;3.08;;;;;;;1.70;75.30;100686.63;5046402;28;20104;-95
2022/04/01 07:41:14;;;;;;;6.88;4.10;;;;;;;1.70;75.20;100689.22;5044752;28;20139;-92
2022/04/01 07:43:39;;;;;;;7.80;3.72;;;;;;;1.70;76.29;100684.00;5044310;28;20032;-92
2022/04/01 07:46:04;;;;;;;5.15;3.33;;;;;;;1.64;75.30;100687.53;5044600;28;20041;-92
2022/04/01 07:48:30;;;;;;;4.38;3.30;;;;;;;1.71;75.27;100698.75;5045114;28;20049;-91
2022/04/01 07:50:55;;;;;;;5.65;3.72;;;;;;;1.71;74.96;100704.84;5044127;28;20075;-91
2022/04/01 07:53:21;;;;;;;5.35;2.85;;;;;;;1.68;74.98;100697.06;5044500;28;20063;-93
2022/04/01 07:55:49;;;;;;;4.47;3.15;;;;;;;1.72;74.85;100710.91;5044269;28;20029;-92
2022/04/01 07:58:16;;;;;;;6.05;3.35;;;;;;;1.74;74.97;100709.19;5043778;28;20095;-93
2022/04/01 08:00:41;;;;;;;4.90;3.10;;;;;;;1.70;74.53;100716.13;5042196;28;20068;-94
2022/04/01 08:03:08;;;;;;;6.38;3.25;;;;;;;1.70;74.92;100715.28;5043235;28;20053;-94
2022/04/01 08:05:33;;;;;;;4.70;3.45;;;;;;;1.70;74.75;100704.84;5043813;28;20069;-93
2022/04/01 08:07:58;;;;;;;5.93;3.90;;;;;;;1.79;75.24;100723.03;5043953;28;20597;-93
2022/04/01 08:10:24;;;;;;;6.35;3.15;;;;;;;1.72;74.71;100716.13;5044022;28;20024;-94
2022/04/01 08:12:49;;;;;;;5.57;2.75;;;;;;;1.68;74.69;100714.41;5044027;28;20519;-91
2022/04/01 08:15:14;;;;;;;6.47;3.33;;;;;;;1.75;74.86;100730.00;5043749;28;20531;-93
2022/04/01 08:17:40;;;;;;;5.85;3.50;;;;;;;1.83;75.14;100734.31;5042786;28;20286;-93
2022/04/01 08:20:07;;;;;;;4.35;3.05;;;;;;;1.73;74.52;100729.16;5042763;28;20051;-93
2022/04/01 08:22:33;;;;;;;4.38;2.83;;;;;;;1.78;74.68;100748.25;5043079;28;20033;-92
2022/04/01 08:24:58;;;;;;;4.18;2.78;;;;;;;1.68;74.51;100738.75;5042592;28;20024;-92
2022/04/01 08:27:23;;;;;;;3.67;2.80;;;;;;;1.78;74.89;100753.47;5043281;28;20025;-93
2022/04/01 08:29:49;;;;;;;3.53;2.83;;;;;;;1.81;74.98;100743.88;5041289;28;20292;-90
2022/04/01 08:32:15;;;;;;;5.72;3.95;;;;;;;1.85;74.91;100751.66;5042396;28;20318;-91
2022/04/01 08:34:41;;;;;;;8.32;2.90;;;;;;;1.86;74.03;100760.34;5042249;28;20060;-92
2022/04/01 08:37:07;;;;;;;5.75;2.95;;;;;;;1.81;73.95;100760.38;5042804;28;20372;-92
2022/04/01 08:39:33;;;;;;;5.70;2.80;;;;;;;1.77;74.33;100756.94;5042594;28;20029;-92
2022/04/01 08:41:59;;;;;;;2.38;2.15;;;;;;;1.74;73.42;100756.94;5044359;28;20029;-94
2022/04/01 08:44:24;;;;;;;3.15;2.80;;;;;;;1.86;73.87;100773.38;5043606;28;20027;-93
2022/04/01 08:46:50;;;;;;;3.70;2.47;;;;;;;1.84;73.47;100773.41;5045263;28;20064;-93
2022/04/01 08:49:16;;;;;;;5.47;2.90;;;;;;;1.92;73.73;100789.88;5045823;28;20024;-92
2022/04/01 08:51:42;;;;;;;3.30;2.28;;;;;;;1.92;72.97;100784.66;5044827;28;20471;-93
2022/04/01 08:54:08;;;;;;;2.53;2.22;;;;;;;1.96;72.78;100801.16;5044618;28;20550;-95
2022/04/01 08:56:33;;;;;;;5.03;2.70;;;;;;;1.97;72.32;100797.66;5045188;28;20025;-93
2022/04/01 08:58:58;;;;;;;4.63;2.47;;;;;;;1.93;72.24;100796.81;5042152;28;20029;-92
2022/04/01 09:01:24;;;;;;;3.00;2.13;;;;;;;1.99;72.31;100808.94;5061833;28;20123;-93
2022/04/01 09:03:49;;;;;;;2.05;1.85;;;;;;;2.10;72.23;100808.88;5045051;28;20029;-92
2022/04/01 09:06:18;;;;;;;2.25;2.05;;;;;;;2.07;71.43;100806.31;5043420;28;20036;-93
2022/04/01 09:08:44;;;;;;;5.03;2.17;;;;;;;2.17;72.32;100818.41;5041862;28;20495;-89
2022/04/01 09:11:18;;;;;;;4.57;2.40;;;;;;;2.21;72.51;100810.53;5058050;28;20348;-92
2022/04/01 09:13:45;;;;;;;2.65;2.13;;;;;;;2.28;72.50;100819.19;5045866;28;20025;-91
2022/04/01 09:16:25;;;;;;;2.70;2.10;;;;;;;2.27;72.21;100830.50;5041593;28;20024;-93
2022/04/01 09:18:54;;;;;;;3.15;2.42;;;;;;;2.29;72.53;100831.38;5039743;28;20501;-92
2022/04/01 09:21:24;;;;;;;4.13;2.25;;;;;;;2.30;72.73;100833.97;5041448;28;20043;-93
2022/04/01 09:23:50;;;;;;;4.28;2.67;;;;;;;2.35;72.03;100826.09;5041108;28;20025;-90
2022/04/01 09:26:21;;;;;;;3.58;2.70;;;;;;;2.42;72.62;100830.38;5041119;28;20035;-90
2022/04/01 09:28:46;;;;;;;9.07;3.33;;;;;;;2.51;72.89;100830.31;5042140;28;20534;-90
2022/04/01 09:31:15;;;;;;;4.55;2.60;;;;;;;2.52;71.86;100832.09;5042344;28;20083;-94
2022/04/01 09:33:43;;;;;;;3.13;2.50;;;;;;;2.57;71.55;100836.41;5044009;28;20037;-93
2022/04/01 09:36:12;;;;;;;4.25;2.30;;;;;;;2.50;71.06;100832.97;5042236;28;20033;-92
2022/04/01 09:38:37;;;;;;;3.65;2.33;;;;;;;2.52;72.14;100839.91;5041060;28;20036;-92
2022/04/01 09:41:04;;;;;;;4.68;2.75;;;;;;;2.57;71.46;100839.03;5043279;28;20025;-93
2022/04/01 09:43:37;;;;;;;5.38;2.35;;;;;;;2.61;71.89;100838.97;5048531;28;20073;-89
2022/04/01 09:46:05;;;;;;;5.05;2.40;;;;;;;2.70;71.17;100857.16;5051987;28;20029;-91
2022/04/01 09:48:40;;;;;;;2.53;2.08;;;;;;;2.73;71.17;100851.06;5056348;28;20031;-91
2022/04/01 09:51:09;;;;;;;5.25;2.00;;;;;;;2.66;70.94;100838.91;5058286;28;21128;-93
2022/04/01 09:53:35;;;;;;;3.33;2.28;;;;;;;2.77;71.61;100858.00;5043214;28;20040;-93
2022/04/01 09:56:00;;;;;;;3.50;2.03;;;;;;;2.82;70.66;100850.97;5047137;28;20033;-94
2022/04/01 09:58:26;;;;;;;3.80;1.98;;;;;;;2.85;70.15;100855.31;5054355;28;20157;-93
2022/04/01 10:00:53;;;;;;;2.80;2.10;;;;;;;2.80;70.70;100857.97;5044309;28;20496;-94
2022/04/01 10:03:19;;;;;;;2.60;1.90;;;;;;;2.83;71.34;100855.31;5043118;28;20028;-93
2022/04/01 10:05:45;;;;;;;3.15;2.17;;;;;;;2.85;70.98;100864.03;5047807;28;20035;-95
2022/04/01 10:08:13;;;;;;;3.08;1.95;;;;;;;2.79;70.73;100856.22;5043419;28;20106;-93
2022/04/01 10:10:40;;;;;;;5.43;2.42;;;;;;;2.81;71.10;100867.53;5056038;28;20025;-92
2022/04/01 10:13:09;;;;;;;3.60;2.38;;;;;;;2.83;71.00;100851.84;5048695;28;20029;-93
2022/04/01 10:15:36;;;;;;;3.65;2.47;;;;;;;2.88;71.06;100857.88;5051560;28;20033;-94
2022/04/01 10:18:02;;;;;;;2.33;1.80;;;;;;;2.90;70.02;100861.38;5049103;28;20476;-93
2022/04/01 10:20:33;;;;;;;2.60;1.80;;;;;;;2.85;70.40;100860.56;5048809;28;20044;-92
2022/04/01 10:23:07;;;;;;;3.63;2.00;;;;;;;2.81;70.50;100863.19;5046792;28;20060;-94
2022/04/01 10:25:44;;;;;;;2.35;1.98;;;;;;;2.82;70.00;100866.66;5039693;28;20024;-95
2022/04/01 10:28:09;;;;;;;3.00;1.85;;;;;;;2.83;70.34;100865.75;5051380;28;20036;-94
2022/04/01 10:30:35;;;;;;;5.00;2.55;;;;;;;2.88;70.19;100865.72;5050010;28;20075;-93
2022/04/01 10:33:06;;;;;;;2.70;1.67;;;;;;;2.85;70.21;100868.38;5050351;28;20390;-95
2022/04/01 10:35:38;;;;;;;4.25;2.15;;;;;;;2.76;70.89;100845.81;5049094;28;20062;-93
2022/04/01 10:38:06;;;;;;;2.33;1.88;;;;;;;2.93;69.55;100867.41;5048545;28;20028;-94
2022/04/01 10:40:33;;;;;;;3.03;1.85;;;;;;;2.93;69.57;100872.63;5049735;28;20037;-92
2022/04/01 10:43:15;;;;;;;5.97;2.30;;;;;;;2.91;70.97;100868.31;5052386;28;20137;-93
2022/04/01 10:45:55;;;;;;;5.65;2.83;;;;;;;2.85;69.70;100864.03;5040241;28;20064;-92
2022/04/01 10:51:37;;;;;;;3.70;2.47;;;;;;;3.01;69.58;100876.06;5047101;28;20140;-92
2022/04/01 10:54:14;;;;;;;2.63;2.40;;;;;;;3.01;69.19;100886.50;5044424;28;20413;-92
2022/04/01 10:57:05;;;;;;;3.03;2.33;;;;;;;3.04;69.05;100877.78;5048605;28;20036;-94
2022/04/01 10:59:43;;;;;;;4.85;2.75;;;;;;;3.10;69.31;100887.31;5047923;28;20124;-92
2022/04/01 11:02:11;;;;;;;4.30;2.60;;;;;;;3.01;69.97;100881.28;5048853;28;20063;-93
2022/04/01 11:04:39;;;;;;;3.30;2.70;;;;;;;3.04;70.68;100883.88;5048574;28;20048;-89
2022/04/01 11:07:11;;;;;;;4.65;2.95;;;;;;;3.16;69.70;100880.28;5048999;28;20475;-93
2022/04/01 11:09:49;;;;;;;;;;;;;;;3.21;69.27;100880.22;5048727;28;20688;-94
2022/04/01 11:12:14;;;;;;;4.90;3.45;;;;;;;3.09;68.83;100896.91;5048489;28;20368;-92
2022/04/01 11:15:14;;;;;;;4.57;2.92;;;;;;;3.10;69.00;100896.00;5047231;28;20415;-92
2022/04/01 11:17:47;;;;;;;4.47;3.28;;;;;;;3.09;68.56;100899.50;5063362;28;20074;-94
2022/04/01 11:20:22;;;;;;;4.68;3.20;;;;;;;3.10;68.65;100896.00;5035436;28;20049;-92
2022/04/01 11:22:54;;;;;;;5.47;3.10;;;;;;;3.15;68.98;100901.19;5047248;28;20438;-94
2022/04/01 11:25:22;;;;;;;4.45;3.15;;;;;;;3.13;68.74;100905.56;5038734;28;20041;-94
2022/04/01 11:27:56;;;;;;;3.90;3.33;;;;;;;3.15;69.04;100911.66;5047465;28;20155;-91
2022/04/01 11:30:24;;;;;;;7.55;3.92;;;;;;;3.13;68.70;100902.97;5040877;28;20119;-92
2022/04/01 11:32:56;;;;;;;5.40;3.83;;;;;;;3.09;68.24;100901.25;5046843;28;20048;-92
2022/04/01 11:35:24;;;;;;;5.63;3.53;;;;;;;3.16;68.52;100910.75;5046365;28;20032;-93
2022/04/01 11:37:49;;;;;;;6.55;3.72;;;;;;;3.16;69.27;100910.75;5046980;28;20037;-93
2022/04/01 11:40:37;;;;;;;4.75;3.65;;;;;;;3.29;69.01;100913.25;5047465;28;20166;-92
2022/04/01 11:43:05;;;;;;;6.30;3.83;;;;;;;3.30;68.22;100903.66;5046363;28;20037;-92
2022/04/01 11:45:37;;;;;;;4.85;3.95;;;;;;;3.28;67.78;100905.44;5047867;28;20059;-91
2022/04/01 11:48:35;;;;;;;5.65;3.92;;;;;;;3.28;68.34;100914.13;5044944;28;20556;-92
2022/04/01 11:51:08;;;;;;;6.13;3.65;;;;;;;3.21;68.28;100903.75;5045427;28;20021;-89
2022/04/01 11:53:36;;;;;;;6.03;4.20;;;;;;;3.22;68.05;100913.34;5046426;28;20506;-91